Latest Weather Observations for Mildura

IDV60801

Issued at 2:02 am EST Monday 3 August 2015 (issued every 30 minutes, with the page automatically refreshed every 10 minutes)

About weather observations | Map of weather stations | Latest weather observations for VIC | Other Formats
Station Details ID: 076031 Name: MILDURA AIRPORT Lat: -34.24 Lon: 142.09 Height: 50.0 m
Data from the previous 72 hours. | See also: Recent months at Mildura
Date/Time
EST
Temp
°C
App
Temp
°C
Dew
Point
Rel
Hum
%
Delta-T
°C
Wind Press
QNH
hPa
Press
MSL
hPa
Rain
since 9 am
mm
Dir
 
Spd
km/h
Gust
km/h
Spd
kts
Gust
kts
03/02:00am 8.3 5.1 6.8 90 0.7 NW 13 17 7 9 1021.2 1021.2 0.0
03/01:30am 8.0 5.2 6.8 92 0.6 WNW 11 15 6 8 1021.4 1021.4 0.0
03/01:00am 8.1 4.9 6.7 91 0.6 WNW 13 17 7 9 1021.5 1021.5 0.0
03/12:30am 8.2 5.0 6.7 90 0.7 W 13 20 7 11 1021.4 1021.4 0.0
03/12:00am 7.7 4.7 6.0 89 0.8 WNW 11 13 6 7 1021.4 1021.4 0.0
 
Date/Time
EST
Temp
°C
App
Temp
°C
Dew
Point
Rel
Hum
%
Delta-T
°C
Wind Press
QNH
hPa
Press
MSL
hPa
Rain
since 9 am
mm
Dir
 
Spd
km/h
Gust
km/h
Spd
kts
Gust
kts
02/11:30pm 8.1 4.7 6.1 87 0.9 WNW 13 19 7 10 1021.4 1021.4 0.0
02/11:00pm 8.0 5.0 5.8 86 1.0 WNW 11 15 6 8 1021.5 1021.5 0.0
02/10:30pm 8.8 5.4 5.9 82 1.3 WNW 13 17 7 9 1021.4 1021.4 0.0
02/10:00pm 9.1 5.7 6.0 81 1.4 WNW 13 19 7 10 1021.2 1021.2 0.0
02/09:30pm 9.6 6.2 6.1 79 1.6 WNW 13 19 7 10 1021.2 1021.2 0.0
02/09:00pm 7.9 5.0 4.8 81 1.4 NW 9 13 5 7 1021.0 1021.0 0.0
02/08:30pm 8.2 4.9 4.8 79 1.5 NW 11 13 6 7 1020.6 1020.6 0.0
02/08:00pm 8.3 5.4 4.9 79 1.5 NW 9 11 5 6 1020.5 1020.5 0.0
02/07:30pm 8.7 5.9 5.3 79 1.5 WNW 9 13 5 7 1020.3 1020.3 0.0
02/07:00pm 9.2 6.9 5.6 78 1.6 WNW 7 11 4 6 1020.1 1020.1 0.0
02/06:30pm 10.2 7.2 5.8 74 2.0 WNW 11 15 6 8 1019.8 1019.8 0.0
02/06:00pm 11.2 7.8 5.7 69 2.5 W 13 19 7 10 1019.4 1019.4 0.0
02/05:30pm 13.0 8.8 5.7 61 3.4 W 17 28 9 15 1019.1 1019.1 0.0
02/05:00pm 13.2 8.9 5.4 59 3.6 W 17 28 9 15 1018.9 1018.9 0.0
02/04:30pm 13.4 8.8 5.6 59 3.7 W 19 28 10 15 1018.9 1018.9 0.0
02/04:00pm 13.6 8.2 4.7 55 4.1 WSW 22 43 12 23 1018.8 1018.8 0.0
02/03:30pm 14.4 8.3 5.0 53 4.4 W 26 41 14 22 1018.6 1018.6 0.0
02/03:00pm 14.3 10.0 5.1 54 4.3 WSW 17 30 9 16 1018.5 1018.5 0.0
02/02:30pm 13.9 8.6 5.0 55 4.2 W 22 32 12 17 1018.3 1018.3 0.0
02/02:00pm 13.8 7.6 4.1 52 4.4 W 26 41 14 22 1018.3 1018.3 0.0
02/01:30pm 13.3 7.5 4.2 54 4.2 WSW 24 33 13 18 1018.5 1018.5 0.0
02/01:00pm 12.6 7.1 4.1 56 3.8 WSW 22 33 12 18 1018.7 1018.7 0.0
02/12:30pm 13.0 7.8 5.7 61 3.4 W 22 32 12 17 1019.0 1019.0 0.0
02/12:00pm 12.2 6.5 5.1 62 3.3 WSW 24 37 13 20 1019.3 1019.3 0.0
02/11:30am 11.9 7.3 5.8 66 2.9 WSW 19 32 10 17 1019.5 1019.5 0.0
02/11:00am 11.3 6.2 5.8 69 2.6 WSW 22 33 12 18 1019.5 1019.5 0.0
02/10:30am 10.4 5.7 6.0 74 2.0 WSW 20 30 11 16 1019.3 1019.3 0.0
02/10:00am 9.8 6.2 6.9 82 1.4 WSW 15 26 8 14 1019.2 1019.2 0.0
02/09:30am 8.6 4.9 6.2 85 1.1 WSW 15 22 8 12 1019.0 1019.0 0.0
02/09:00am 7.9 5.0 6.4 90 0.7 WSW 11 15 6 8 1018.7 1018.7 2.8
02/08:30am 6.7 4.2 6.4 98 0.1 SW 9 13 5 7 1018.5 1018.5 2.8
02/08:00am 6.1 3.8 5.8 98 0.1 SW 7 11 4 6 1018.2 1018.2 2.8
02/07:30am 6.5 4.8 6.1 97 0.2 SSW 4 7 2 4 1017.4 1017.5 2.8
02/07:00am 7.0 4.9 6.6 97 0.2 SSW 7 9 4 5 1017.7 1017.7 2.8
02/06:30am 7.1 5.2 6.5 96 0.3 SW 6 11 3 6 1017.7 1017.7 2.6
02/06:08am 7.2 3.9 6.6 96 0.3 SSW 13 22 7 12 1017.1 1017.2 2.6
02/06:00am 7.2 3.6 6.6 96 0.3 SSW 15 22 8 12 1016.6 1016.7 2.6
02/05:57am 7.3 4.1 6.9 97 0.2 SSW 13 20 7 11 1016.6 1016.7 2.6
02/05:31am 8.0 4.2 7.6 97 0.2 SSW 17 30 9 16 1015.8 1015.9 2.6
02/05:30am 8.0 4.2 7.6 97 0.2 SSW 17 28 9 15 1015.8 1015.9 2.6
02/05:12am 8.0 5.7 7.6 97 0.2 SSW 9 15 5 8 1015.8 1015.9 2.6
02/05:00am 8.0 5.7 7.6 97 0.2 SW 9 13 5 7 1016.5 1016.6 2.4
02/04:30am 8.0 5.3 7.4 96 0.3 SSW 11 19 6 10 1016.4 1016.5 2.4
02/04:00am 8.0 5.3 7.4 96 0.3 SSW 11 17 6 9 1016.8 1016.9 2.2
02/03:30am 7.7 5.0 7.3 97 0.2 SSW 11 17 6 9 1016.3 1016.4 2.2
02/03:00am 7.5 5.2 7.4 99 0.0 SW 9 13 5 7 1016.3 1016.4 2.2
02/02:30am 7.4 5.4 7.3 99 0.0 SSW 7 11 4 6 1016.6 1016.7 2.2
02/02:00am 7.4 4.7 7.3 99 0.0 SSW 11 15 6 8 1016.6 1016.7 2.2
02/01:48am 7.4 5.1 7.3 99 0.0 SSW 9 13 5 7 1016.7 1016.8 2.2
02/01:47am 7.4 5.1 7.3 99 0.0 SSW 9 13 5 7 1016.7 1016.8 2.2
02/01:30am 7.2 4.4 7.1 99 0.0 SSW 11 17 6 9 1016.7 1016.8 2.2
02/01:00am 6.7 3.8 6.6 99 0.0 SSW 11 15 6 8 1016.7 1016.8 2.2
02/12:56am 6.6 3.7 6.5 99 0.0 SSW 11 15 6 8 1016.6 1016.7 2.2
02/12:53am 6.5 4.0 6.4 99 0.0 SSW 9 13 5 7 1016.5 1016.6 2.2
02/12:31am 6.3 3.7 6.2 99 0.0 SSW 9 15 5 8 1016.6 1016.7 2.2
02/12:30am 6.2 3.6 6.1 99 0.0 SSW 9 15 5 8 1016.6 1016.7 2.2
02/12:00am 6.4 3.8 6.3 99 0.0 SSW 9 11 5 6 1016.2 1016.3 2.0
 
Date/Time
EST
Temp
°C
App
Temp
°C
Dew
Point
Rel
Hum
%
Delta-T
°C
Wind Press
QNH
hPa
Press
MSL
hPa
Rain
since 9 am
mm
Dir
 
Spd
km/h
Gust
km/h
Spd
kts
Gust
kts
01/11:30pm 6.8 5.3 6.7 99 0.0 S 4 7 2 4 1016.1 1016.2 2.0
01/11:13pm 7.0 5.1 6.9 99 0.0 S 6 9 3 5 1016.3 1016.4 2.0
01/11:06pm 7.0 5.0 6.9 99 0.0 S 7 9 4 5 1016.2 1016.3 2.0
01/11:00pm 7.1 5.0 6.8 98 0.1 S 7 9 4 5 1016.3 1016.4 2.0
01/10:31pm 7.1 5.2 6.8 98 0.1 SSW 6 7 3 4 1016.5 1016.6 2.0
01/10:30pm 7.2 5.3 6.9 98 0.1 SSW 6 7 3 4 1016.5 1016.6 2.0
01/10:00pm 7.7 5.7 7.3 97 0.2 S 7 11 4 6 1016.3 1016.4 2.0
01/09:30pm 8.1 6.2 7.5 96 0.3 S 7 9 4 5 1016.4 1016.5 2.0
01/09:00pm 8.7 6.9 7.9 95 0.4 S 7 13 4 7 1016.3 1016.4 2.0
01/08:30pm 8.8 7.2 7.9 94 0.4 ESE 6 7 3 4 1016.7 1016.8 2.0
01/08:00pm 9.4 7.3 8.3 93 0.5 SE 9 13 5 7 1016.4 1016.5 2.0
01/07:30pm 9.6 7.2 8.5 93 0.5 SE 11 15 6 8 1016.1 1016.2 2.0
01/07:00pm 9.7 7.7 8.5 92 0.6 SE 9 13 5 7 1016.4 1016.5 2.0
01/06:30pm 9.7 6.8 8.1 90 0.8 SE 13 17 7 9 1016.4 1016.5 2.0
01/06:00pm 10.2 7.8 8.6 90 0.8 S 11 15 6 8 1016.8 1016.9 2.0
01/05:30pm 10.3 7.5 8.4 88 0.9 ESE 13 17 7 9 1016.2 1016.3 2.0
01/05:00pm 10.5 7.3 8.6 88 0.9 SE 15 19 8 10 1016.0 1016.1 2.0
01/04:30pm 10.8 8.1 8.9 88 0.9 SSE 13 20 7 11 1017.1 1017.2 2.0
01/04:00pm 10.9 7.8 8.8 87 1.0 SSE 15 24 8 13 1016.8 1016.9 2.0
01/03:30pm 10.9 7.5 9.2 89 0.8 SSE 17 28 9 15 1016.0 1016.1 2.0
01/03:00pm 11.5 8.5 10.6 94 0.5 S 17 30 9 16 1016.0 1016.1 2.0
01/02:30pm 12.5 10.4 11.2 92 0.7 SSE 13 19 7 10 1015.4 1015.5 2.0
01/02:00pm 12.2 9.8 11.3 94 0.5 S 15 20 8 11 1015.4 1015.5 2.0
01/01:57pm 12.3 10.3 11.4 94 0.5 S 13 20 7 11 1015.2 1015.3 2.0
01/01:51pm 12.6 10.7 11.7 94 0.5 S 13 22 7 12 1014.9 1015.0 2.0
01/01:30pm 12.2 10.2 11.4 95 0.4 S 13 20 7 11 1015.4 1015.5 2.0
01/01:00pm 12.1 10.0 11.3 95 0.4 SSW 13 24 7 13 1015.4 1015.5 2.0
01/12:30pm 13.0 11.9 12.1 94 0.5 SW 9 15 5 8 1016.1 1016.2 1.0
01/12:25pm 13.1 11.6 12.0 93 0.6 WSW 11 17 6 9 1015.9 1016.0 0.6
01/12:05pm 13.7 12.1 11.7 88 1.1 WSW 11 17 6 9 1016.0 1016.1 0.0
01/12:00pm 13.7 12.1 11.6 87 1.1 WSW 11 17 6 9 1016.0 1016.1 0.0
01/11:30am 13.9 10.7 11.2 84 1.4 WSW 19 30 10 16 1016.0 1016.1 0.0
01/11:00am 14.9 12.2 10.5 75 2.3 W 15 24 8 13 1015.7 1015.8 0.0
01/10:30am 14.3 12.1 9.3 72 2.6 WNW 11 17 6 9 1015.8 1015.9 0.0
01/10:00am 13.8 12.0 9.5 75 2.2 NW 9 15 5 8 1015.5 1015.6 0.0
01/09:30am 13.2 10.9 8.9 75 2.2 NW 11 17 6 9 1015.3 1015.4 0.0
01/09:00am 12.5 10.4 8.2 75 2.1 NNW 9 13 5 7 1015.4 1015.5 1.4
01/08:30am 11.9 10.3 8.9 82 1.5 NW 7 11 4 6 1014.9 1015.0 1.2
01/08:00am 11.8 9.4 8.6 81 1.6 WNW 11 13 6 7 1015.1 1015.2 1.2
01/07:30am 12.1 9.3 8.4 78 1.8 WNW 13 19 7 10 1014.8 1014.9 0.8
01/07:00am 12.4 9.8 7.9 74 2.2 WNW 11 15 6 8 1014.6 1014.7 0.4
01/06:30am 13.8 10.4 5.9 59 3.8 WNW 13 20 7 11 1013.8 1013.9 0.0
01/06:00am 13.3 10.3 6.2 62 3.4 NW 11 15 6 8 1014.5 1014.6 0.0
01/05:30am 14.8 11.5 4.8 51 4.7 NNW 11 17 6 9 1013.5 1013.6 0.0
01/05:00am 14.5 11.4 7.1 61 3.6 N 13 19 7 10 1013.3 1013.4 0.0
01/04:30am 14.2 11.3 6.6 60 3.7 N 11 15 6 8 1013.3 1013.4 0.0
01/04:00am 15.2 12.6 6.2 55 4.4 NNW 9 15 5 8 1013.3 1013.4 0.0
01/03:30am 15.7 11.7 6.7 55 4.4 NNW 17 26 9 14 1014.1 1014.2 0.0
01/03:00am 15.0 12.7 8.9 67 3.1 NNW 11 15 6 8 1014.2 1014.3 0.0
01/02:30am 15.3 12.4 9.7 69 2.9 NW 15 22 8 12 1014.5 1014.6 0.0
01/02:00am 16.2 12.9 9.4 64 3.5 NW 17 24 9 13 1014.8 1014.9 0.0
01/01:30am 15.1 9.6 10.7 75 2.3 NW 30 43 16 23 1015.2 1015.3 0.0
01/01:14am 15.9 10.3 8.6 62 3.7 NNW 28 46 15 25 1015.3 1015.4 0.0
01/01:00am 15.7 10.6 6.2 53 4.6 NNW 22 35 12 19 1015.1 1015.2 0.0
01/12:30am 14.9 11.0 5.4 53 4.5 N 15 20 8 11 1015.1 1015.2 0.0
01/12:00am 15.2 11.7 5.4 52 4.7 N 13 20 7 11 1015.1 1015.2 0.0
 
Date/Time
EST
Temp
°C
App
Temp
°C
Dew
Point
Rel
Hum
%
Delta-T
°C
Wind Press
QNH
hPa
Press
MSL
hPa
Rain
since 9 am
mm
Dir
 
Spd
km/h
Gust
km/h
Spd
kts
Gust
kts
31/11:30pm 14.2 10.5 6.3 59 3.8 N 15 19 8 10 1015.4 1015.5 0.0
31/11:00pm 14.1 10.1 6.7 61 3.6 N 17 20 9 11 1015.8 1015.9 0.0
31/10:30pm 13.2 9.7 7.0 66 3.0 N 15 19 8 10 1016.1 1016.2 0.0
31/10:00pm 12.6 9.6 7.5 71 2.5 NNE 13 20 7 11 1016.3 1016.4 0.0
31/09:30pm 12.0 9.0 7.5 74 2.2 NNE 13 17 7 9 1016.4 1016.5 0.0
31/09:00pm 12.4 9.4 7.5 72 2.4 NNE 13 15 7 8 1016.7 1016.8 0.0
31/08:30pm 12.2 9.1 7.3 72 2.4 N 13 17 7 9 1016.6 1016.7 0.0
31/08:00pm 10.7 7.9 6.8 77 1.8 NNE 11 13 6 7 1016.8 1016.9 0.0
31/07:30pm 12.2 9.3 6.3 67 2.8 N 11 15 6 8 1017.3 1017.4 0.0
31/07:00pm 12.0 9.1 6.5 69 2.6 N 11 13 6 7 1017.1 1017.2 0.0
31/06:30pm 11.4 8.4 6.1 70 2.5 N 11 13 6 7 1016.9 1017.0 0.0
31/06:00pm 12.1 9.0 5.7 65 3.0 NNE 11 11 6 6 1016.9 1017.0 0.0
31/05:30pm 14.5 11.1 5.8 56 4.2 N 13 22 7 12 1017.2 1017.3 0.0
31/05:00pm 15.2 10.6 5.7 53 4.5 NNW 19 28 10 15 1017.3 1017.4 0.0
31/04:30pm 15.9 11.3 5.5 50 5.0 N 19 26 10 14 1017.8 1017.8 0.0
31/04:00pm 16.0 11.3 5.3 49 5.1 N 19 24 10 13 1017.8 1017.8 0.0
31/03:30pm 15.4 10.6 4.8 49 5.0 N 19 28 10 15 1018.2 1018.2 0.0
31/03:00pm 15.9 12.2 4.6 47 5.3 NNW 13 20 7 11 1018.6 1018.6 0.0
31/02:30pm 15.6 11.9 4.6 48 5.2 NNW 13 24 7 13 1019.1 1019.1 0.0
31/02:00pm 14.8 11.4 3.9 48 5.0 NNW 11 20 6 11 1019.8 1019.8 0.0
31/01:30pm 14.3 11.8 4.6 52 4.5 NNE 7 15 4 8 1020.3 1020.3 0.0
31/01:00pm 12.9 10.1 3.3 52 4.3 N 7 11 4 6 1021.0 1021.0 0.0
31/12:30pm 12.9 10.3 3.0 51 4.4 NE 6 11 3 6 1021.5 1021.6 0.0
31/12:00pm 12.9 10.3 3.3 52 4.3 NE 6 11 3 6 1022.2 1022.3 0.0
31/11:30am 12.0 9.3 3.5 56 3.8 NE 7 9 4 5 1022.8 1022.9 0.0
31/11:00am 11.0 8.2 5.1 67 2.7 ESE 9 13 5 7 1023.4 1023.5 0.0
31/10:30am 10.0 7.5 6.5 79 1.6 ESE 9 11 5 6 1023.6 1023.7 0.0
31/10:00am 8.0 5.9 6.8 92 0.6 ESE 7 11 4 6 1023.6 1023.7 0.0
31/09:55am 7.4 4.8 6.0 91 0.6 ESE 9 11 5 6 1023.7 1023.8 0.0
31/09:30am 7.2 5.2 6.9 98 0.1 SE 7 11 4 6 1023.7 1023.8 0.0
31/09:21am 6.9 4.8 6.8 99 0.0 SE 7 9 4 5 1023.8 1023.9 0.0
31/09:00am 5.1 2.8 5.0 99 0.0 S 6 7 3 4 1023.3 1023.4 0.0
31/08:35am 4.3 1.7 4.2 99 0.0 SSW 7 11 4 6 1023.4 1023.5 0.0
31/08:30am 4.1 1.1 4.0 99 0.0 SSW 9 11 5 6 1023.5 1023.6 0.0
31/08:00am 3.1 -0.1 3.0 99 0.0 SSW 9 11 5 6 1023.3 1023.4 0.0
31/07:57am 3.0 -0.2 2.9 99 0.0 SSW 9 13 5 7 1023.3 1023.4 0.0
31/07:30am 3.0 -0.2 2.9 99 0.0 SSW 9 11 5 6 1022.9 1023.0 0.0
31/07:00am 3.5 2.1 3.4 99 0.0 CALM 0 7 0 4 1022.4 1022.5 0.0
31/06:30am 3.4 1.9 3.1 98 0.1 CALM 0 0 0 0 1022.2 1022.3 0.0
31/06:00am 3.9 2.5 3.6 98 0.1 CALM 0 0 0 0 1022.1 1022.2 0.0
31/05:46am 3.7 1.1 3.4 98 0.1 WSW 6 7 3 4 1022.0 1022.1 0.0
31/05:30am 3.6 1.0 3.3 98 0.1 SW 6 7 3 4 1021.9 1022.0 0.0
31/05:00am 4.5 2.1 4.2 98 0.1 WSW 6 7 3 4 1021.7 1021.8 0.0
31/04:30am 5.1 3.5 4.7 97 0.2 WSW 2 7 1 4 1021.7 1021.8 0.0
31/04:12am 6.1 4.0 5.7 97 0.2 SSW 6 7 3 4 1021.3 1021.4 0.0
31/04:00am 5.8 3.4 5.4 97 0.2 SW 7 7 4 4 1021.3 1021.4 0.0
31/03:30am 6.6 4.4 6.0 96 0.3 SSW 7 7 4 4 1021.2 1021.2 0.0
31/03:00am 7.6 5.6 6.9 95 0.3 WSW 7 11 4 6 1021.6 1021.7 0.0
31/02:30am 8.8 7.9 7.6 92 0.6 SSW 2 6 1 3 1021.5 1021.6 0.0
31/02:06am 9.7 7.5 8.0 89 0.8 SSW 9 13 5 7 1021.5 1021.6 0.0

Other Formats:

Comma delimited format used in spreadsheet applications
http://www.bom.gov.au/fwo/IDV60801/IDV60801.94693.axf

JavaScript Object Notation format (JSON) in row-major order
http://www.bom.gov.au/fwo/IDV60801/IDV60801.94693.json